createdAt,value
2022-08-07T00:00:34.716Z,19.40
2022-08-07T00:04:36.689Z,19.40
2022-08-07T00:08:44.455Z,19.40
2022-08-07T00:12:59.853Z,19.30
2022-08-07T00:17:03.187Z,19.20
2022-08-07T00:21:07.994Z,19.20
2022-08-07T00:25:37.541Z,19.30
2022-08-07T00:29:44.017Z,19.30
2022-08-07T00:33:47.728Z,19.30
2022-08-07T00:37:49.901Z,19.40
2022-08-07T00:42:01.948Z,19.40
2022-08-07T00:46:08.003Z,19.40
2022-08-07T00:50:21.217Z,19.40
2022-08-07T00:54:32.673Z,19.40
2022-08-07T00:58:34.861Z,19.40
2022-08-07T01:02:36.963Z,19.40
2022-08-07T01:06:41.650Z,19.40
2022-08-07T01:10:54.320Z,19.50
2022-08-07T01:15:01.635Z,19.50
2022-08-07T01:19:14.881Z,19.50
2022-08-07T01:23:25.468Z,19.60
2022-08-07T01:27:41.045Z,19.60
2022-08-07T01:31:53.552Z,19.60
2022-08-07T01:36:06.377Z,19.60
2022-08-07T01:40:15.409Z,19.50
2022-08-07T01:44:17.887Z,19.50
2022-08-07T01:48:29.596Z,19.50
2022-08-07T01:52:34.624Z,19.60
2022-08-07T01:57:05.709Z,19.50
2022-08-07T02:01:58.732Z,19.50
2022-08-07T02:05:53.608Z,19.50
2022-08-07T02:10:02.014Z,19.50
2022-08-07T02:14:07.364Z,19.50
2022-08-07T02:18:14.265Z,19.40
2022-08-07T02:22:21.569Z,19.40
2022-08-07T02:26:33.149Z,19.30
2022-08-07T02:30:38.743Z,19.30
2022-08-07T02:34:51.060Z,19.20
2022-08-07T02:38:57.112Z,19.30
2022-08-07T02:43:01.757Z,19.30
2022-08-07T02:47:19.819Z,19.30
2022-08-07T02:51:42.009Z,19.30
2022-08-07T02:56:03.388Z,19.40
2022-08-07T03:00:11.152Z,19.40
2022-08-07T03:04:15.776Z,19.40
2022-08-07T03:08:18.880Z,19.50
2022-08-07T03:12:30.875Z,19.50
2022-08-07T03:16:38.427Z,19.50
2022-08-07T03:20:40.913Z,19.50
2022-08-07T03:24:43.844Z,19.50
2022-08-07T03:28:48.371Z,19.50
2022-08-07T03:32:57.136Z,19.50
2022-08-07T03:37:12.316Z,19.40
2022-08-07T03:41:15.265Z,19.40
2022-08-07T03:45:29.421Z,19.30
2022-08-07T03:49:33.944Z,19.30
2022-08-07T03:54:01.967Z,19.40
2022-08-07T03:58:34.194Z,19.40
2022-08-07T04:02:23.116Z,19.40
2022-08-07T04:06:37.577Z,19.30
2022-08-07T04:10:42.343Z,19.30
2022-08-07T04:14:47.562Z,19.40
2022-08-07T04:18:59.110Z,19.40
2022-08-07T04:23:06.203Z,19.30
2022-08-07T04:27:15.212Z,19.30
2022-08-07T04:31:38.864Z,19.40
2022-08-07T04:35:51.201Z,19.40
2022-08-07T04:39:55.109Z,19.50
2022-08-07T04:44:14.601Z,19.50
2022-08-07T04:49:17.908Z,19.40
2022-08-07T04:54:05.805Z,19.40
2022-08-07T04:58:29.129Z,19.40
2022-08-07T05:02:39.189Z,19.40
2022-08-07T05:07:09.648Z,19.40
2022-08-07T05:11:57.495Z,19.50
2022-08-07T05:15:53.710Z,19.50
2022-08-07T05:19:57.450Z,19.50
2022-08-07T05:24:08.445Z,19.60
2022-08-07T05:28:20.559Z,19.60
2022-08-07T05:32:26.502Z,19.70
2022-08-07T05:36:30.207Z,19.80
2022-08-07T05:40:34.433Z,19.90
2022-08-07T05:44:41.595Z,20.00
2022-08-07T05:48:58.258Z,20.10
2022-08-07T05:53:04.946Z,20.20
2022-08-07T05:57:07.847Z,20.20
2022-08-07T06:01:12.112Z,20.30
2022-08-07T06:05:15.734Z,20.10
2022-08-07T06:09:18.656Z,20.10
2022-08-07T06:14:11.595Z,20.10
2022-08-07T06:17:53.846Z,20.00
2022-08-07T06:22:11.904Z,20.10
2022-08-07T06:26:20.812Z,20.00
2022-08-07T06:30:35.132Z,20.10
2022-08-07T06:34:40.677Z,20.20
2022-08-07T06:38:58.703Z,20.30
2022-08-07T06:43:21.691Z,20.50
2022-08-07T06:47:24.980Z,20.60
2022-08-07T06:51:33.932Z,20.80
2022-08-07T06:55:53.465Z,20.90
2022-08-07T07:00:12.087Z,20.90
2022-08-07T07:04:32.314Z,20.90
2022-08-07T07:08:36.085Z,20.90
2022-08-07T07:12:55.796Z,21.00
2022-08-07T07:17:03.256Z,21.30
2022-08-07T07:21:19.952Z,21.60
2022-08-07T07:26:33.837Z,21.90
2022-08-07T07:30:08.891Z,22.00
2022-08-07T07:34:16.954Z,21.90
2022-08-07T07:38:25.985Z,22.40
2022-08-07T07:42:32.970Z,22.70
2022-08-07T07:46:55.329Z,23.10
2022-08-07T07:51:00.710Z,23.40
2022-08-07T07:55:05.985Z,23.70
2022-08-07T07:59:09.357Z,24.00
2022-08-07T08:03:16.942Z,24.00
2022-08-07T08:07:42.361Z,24.00
2022-08-07T08:12:02.931Z,24.10
2022-08-07T08:16:08.554Z,24.40
2022-08-07T08:20:22.281Z,24.90
2022-08-07T08:24:47.937Z,25.00
2022-08-07T08:29:01.308Z,25.20
2022-08-07T08:33:15.113Z,25.50
2022-08-07T08:37:53.957Z,25.10
2022-08-07T08:41:59.515Z,25.10
2022-08-07T08:46:20.351Z,25.10
2022-08-07T08:50:34.711Z,25.30
2022-08-07T08:55:54.914Z,25.40
2022-08-07T09:00:02.134Z,25.70
2022-08-07T09:04:45.381Z,26.40
2022-08-07T09:09:23.820Z,27.20
2022-08-07T09:14:13.164Z,27.50
2022-08-07T09:18:30.852Z,29.20
2022-08-07T09:24:31.771Z,30.30
2022-08-07T09:27:59.508Z,30.20
2022-08-07T09:32:26.555Z,30.00
2022-08-07T09:36:37.019Z,30.10
2022-08-07T09:41:00.844Z,31.60
2022-08-07T09:47:52.127Z,32.10
2022-08-07T09:50:19.182Z,32.70
2022-08-07T09:54:40.634Z,31.20
2022-08-07T09:59:14.957Z,29.20
2022-08-07T10:04:03.642Z,28.40
2022-08-07T10:08:15.290Z,28.00
2022-08-07T10:12:52.948Z,27.60
2022-08-07T10:18:01.118Z,27.30
2022-08-07T10:22:33.785Z,27.60
2022-08-07T10:27:18.139Z,27.50
2022-08-07T10:31:45.311Z,27.10
2022-08-07T10:36:05.515Z,27.00
2022-08-07T10:40:30.274Z,26.80
2022-08-07T10:44:48.138Z,26.70
2022-08-07T10:49:49.289Z,26.70
2022-08-07T10:54:30.434Z,26.70
2022-08-07T10:58:59.579Z,26.20
2022-08-07T11:03:37.619Z,26.10
2022-08-07T11:08:29.205Z,26.10
2022-08-07T11:12:38.669Z,25.70
2022-08-07T11:16:56.790Z,25.80
2022-08-07T11:21:14.226Z,26.60
2022-08-07T11:25:42.591Z,27.40
2022-08-07T11:30:17.992Z,28.40
2022-08-07T11:34:59.720Z,27.80
2022-08-07T11:39:04.752Z,28.40
2022-08-07T11:43:29.624Z,28.30
2022-08-07T11:48:13.786Z,28.00
2022-08-07T11:53:10.123Z,27.50
2022-08-07T11:57:59.479Z,27.30
2022-08-07T12:02:17.812Z,27.10
2022-08-07T12:06:51.513Z,27.10
2022-08-07T12:11:20.702Z,27.40
2022-08-07T12:16:05.645Z,27.30
2022-08-07T12:20:12.909Z,27.30
2022-08-07T12:25:07.808Z,26.90
2022-08-07T12:29:16.623Z,26.50
2022-08-07T12:33:31.021Z,26.20
2022-08-07T12:38:09.581Z,26.00
2022-08-07T12:42:15.970Z,25.30
2022-08-07T12:46:37.007Z,24.90
2022-08-07T12:51:01.072Z,24.80
2022-08-07T12:55:40.462Z,24.70
2022-08-07T12:59:55.383Z,25.10
2022-08-07T13:04:04.858Z,24.90
2022-08-07T13:08:26.540Z,24.70
2022-08-07T13:12:36.359Z,24.70
2022-08-07T13:16:46.633Z,24.30
2022-08-07T13:20:56.477Z,24.30
2022-08-07T13:25:06.003Z,24.30
2022-08-07T13:29:16.977Z,23.90
2022-08-07T13:34:30.668Z,23.90
2022-08-07T13:38:13.868Z,24.10
2022-08-07T13:42:19.152Z,24.10
2022-08-07T13:46:33.476Z,24.30
2022-08-07T13:50:45.171Z,24.60
2022-08-07T13:55:13.174Z,24.20
2022-08-07T13:59:27.151Z,23.90
2022-08-07T14:04:05.237Z,23.80
2022-08-07T14:08:01.470Z,23.50
2022-08-07T14:12:07.329Z,23.40
2022-08-07T14:16:16.127Z,23.60
2022-08-07T14:20:42.554Z,23.60
2022-08-07T14:24:49.748Z,23.60
2022-08-07T14:28:57.136Z,23.70
2022-08-07T14:33:05.289Z,23.80
2022-08-07T14:37:16.389Z,24.00
2022-08-07T14:41:34.114Z,24.30
2022-08-07T14:45:54.542Z,24.20
2022-08-07T14:49:59.485Z,24.30
2022-08-07T14:58:28.068Z,24.00
2022-08-07T15:02:34.477Z,23.80
2022-08-07T15:06:40.026Z,23.60
2022-08-07T15:11:04.206Z,23.70
2022-08-07T15:15:17.419Z,23.60
2022-08-07T15:20:31.650Z,23.40
2022-08-07T15:25:15.013Z,23.20
2022-08-07T15:28:31.227Z,23.20
2022-08-07T15:33:01.189Z,23.10
2022-08-07T15:42:44.756Z,23.10
2022-08-07T15:46:00.713Z,23.10
2022-08-07T15:50:11.668Z,23.00
2022-08-07T15:54:40.793Z,23.20
2022-08-07T15:58:59.973Z,23.10
2022-08-07T16:03:06.719Z,22.90
2022-08-07T16:08:28.983Z,23.00
2022-08-07T16:12:12.268Z,23.00
2022-08-07T16:16:49.694Z,22.80
2022-08-07T16:21:43.945Z,22.40
2022-08-07T16:25:56.616Z,22.40
2022-08-07T16:30:30.277Z,22.40
2022-08-07T16:34:52.263Z,22.40
2022-08-07T16:39:16.747Z,22.10
2022-08-07T16:44:05.941Z,22.20
2022-08-07T16:48:29.967Z,22.10
2022-08-07T16:53:55.423Z,21.70
2022-08-07T16:58:04.081Z,21.80
2022-08-07T17:02:51.717Z,21.70
2022-08-07T17:07:08.691Z,21.80
2022-08-07T17:11:16.921Z,21.90
2022-08-07T17:15:44.513Z,22.00
2022-08-07T17:20:00.671Z,22.10
2022-08-07T17:24:29.865Z,21.80
2022-08-07T17:28:49.842Z,21.60
2022-08-07T17:34:08.496Z,21.60
2022-08-07T17:38:05.033Z,21.80
2022-08-07T17:42:21.262Z,21.90
2022-08-07T17:46:38.017Z,21.90
2022-08-07T17:50:53.963Z,21.90
2022-08-07T17:55:04.414Z,21.90
2022-08-07T17:59:09.630Z,21.90
2022-08-07T18:03:54.176Z,21.90
2022-08-07T18:08:24.497Z,21.80
2022-08-07T18:12:42.095Z,21.60
2022-08-07T18:16:57.666Z,21.80
2022-08-07T18:21:37.188Z,21.80
2022-08-07T18:25:46.863Z,21.70
2022-08-07T18:30:06.532Z,21.60
2022-08-07T18:34:37.517Z,21.60
2022-08-07T18:39:00.266Z,21.60
2022-08-07T18:43:15.102Z,21.50
2022-08-07T18:47:37.983Z,21.50
2022-08-07T18:52:34.656Z,21.40
2022-08-07T18:57:23.556Z,21.40
2022-08-07T19:02:17.186Z,21.30
2022-08-07T19:06:01.998Z,21.40
2022-08-07T19:10:18.575Z,21.40
2022-08-07T19:14:42.489Z,21.40
2022-08-07T19:19:32.682Z,21.50
2022-08-07T19:23:58.712Z,21.40
2022-08-07T19:28:57.107Z,21.30
2022-08-07T19:32:34.460Z,21.10
2022-08-07T19:36:51.826Z,21.10
2022-08-07T19:40:59.859Z,21.10
2022-08-07T19:45:08.419Z,21.10
2022-08-07T19:49:57.867Z,21.00
2022-08-07T19:54:31.938Z,20.90
2022-08-07T19:58:22.159Z,20.80
2022-08-07T20:02:38.963Z,20.80
2022-08-07T20:06:42.909Z,20.80
2022-08-07T20:10:55.057Z,20.80
2022-08-07T20:14:58.851Z,20.80
2022-08-07T20:19:02.579Z,20.80
2022-08-07T20:23:41.815Z,20.70
2022-08-07T20:27:46.421Z,20.70
2022-08-07T20:31:51.124Z,20.60
2022-08-07T20:36:03.225Z,20.70
2022-08-07T20:40:33.149Z,20.70
2022-08-07T20:44:33.366Z,20.60
2022-08-07T20:48:36.927Z,20.60
2022-08-07T20:52:51.080Z,20.60
2022-08-07T20:56:56.677Z,20.60
2022-08-07T21:01:19.963Z,20.60
2022-08-07T21:05:42.719Z,20.80
2022-08-07T21:09:53.245Z,20.80
2022-08-07T21:14:31.519Z,20.60
2022-08-07T21:18:34.467Z,20.50
2022-08-07T21:22:53.382Z,20.40
2022-08-07T21:27:06.835Z,20.40
2022-08-07T21:32:42.581Z,20.40
2022-08-07T21:36:11.965Z,20.40
2022-08-07T21:40:39.109Z,20.40
2022-08-07T21:44:52.639Z,20.40
2022-08-07T21:49:14.806Z,20.40
2022-08-07T21:53:31.021Z,20.40
2022-08-07T21:57:53.794Z,20.40
2022-08-07T22:02:07.036Z,20.40
2022-08-07T22:06:30.121Z,20.40
2022-08-07T22:10:35.432Z,20.40
2022-08-07T22:14:59.373Z,20.40
2022-08-07T22:19:29.540Z,20.40
2022-08-07T22:23:53.290Z,20.40
2022-08-07T22:28:29.611Z,20.40
2022-08-07T22:32:53.017Z,20.40
2022-08-07T22:37:18.474Z,20.40
2022-08-07T22:42:03.772Z,20.30
2022-08-07T22:47:03.880Z,20.30
2022-08-07T22:51:31.907Z,20.20
2022-08-07T22:55:57.725Z,20.10
2022-08-07T23:00:21.441Z,20.10
2022-08-07T23:06:06.806Z,20.10
2022-08-07T23:10:05.495Z,20.00
2022-08-07T23:14:39.535Z,19.90
2022-08-07T23:19:38.907Z,19.80
2022-08-07T23:24:04.559Z,19.80
2022-08-07T23:28:54.395Z,19.70
2022-08-07T23:34:22.241Z,19.80
2022-08-07T23:38:00.882Z,19.80
2022-08-07T23:42:26.003Z,19.80
2022-08-07T23:47:00.368Z,19.70
2022-08-07T23:53:00.187Z,19.70
2022-08-07T23:56:00.620Z,19.70
